KBIE

Beatrice Municipal Airport

Beatrice, Nebraska, USA
METAR KBIE 110235Z AUTO 19006KT 10SM CLR M02/M05 A3017 RMK AO2 T10221047
Observed Flight Rules
Dec-11 @ 02:35 UTC (12 minutes ago) Visual Flight Rules
Wind Visibility Clouds
190° at 6 knots 10 miles
  • Clear skies
Temperatures Readings
Current -2°C / 28°F
Dewpoint -5°C / 23°F
Humidity 80%
Altimeter 30.17" Hg
Pressure 1022 hPa
Elevation 403
METAR KBIE 110235Z AUTO 19006KT 10SM CLR M02/M05 A3017 RMK AO2 T10221047
Observed Flight Rules
Dec-11 @ 02:35 UTC
(12 minutes ago)
VFR
Wind Visibility
190° at 6 knots 10 miles
Clouds
  • Clear skies
Temperature Dewpoint
-2°C / 28°F -5°C / 23°F
Humidity Altimeter Pressure
80% 30.17" Hg 1022 hPa